Disclaimer

Please do not use the information listed here in-flight or in-navigation, as they are not provided to us by the airports but are provided by volunteers, so they might be outdated.

Search


Regions


Airport information page

Radio informations:
CUENCA RDO - 126.9 MHz
Ground (GND) - 121.9 MHz
Approach/Tower (APP/TWR) - 122.3 MHz

Airport informations:
Latitude: 02° 53' 22.08" S
Longitude: 078° 59' 03.83" W
Elevation: 8306 feet - 2532 meters
Operating hours: Remarks
Operating agency: Civil government, landing fees and diplomatic clearance may be required
Timezone: UTC-5
Fuel: N/A

Runway information:
05/23 - 6234 x 118 feet< - >1900 x 36 meters

Recent METARs:
SECU 202003Z 28009KT 3000 TSRA SCT030CB SCT040 15/15 Q1023
SECU 202003Z 28009KT 3000 TSRA SCT030CB SCT040 15/15 Q1023
SECU 202100Z 18003KT 4000 TSRA SCT030CB SCT040 13/13 Q1024

Airport on the map: